Time;durP1;ratioP1;P1;durP2;ratioP2;P2;SDS_P1;SDS_P2;PMS_P1;PMS_P2;Temp;Humidity;BMP_temperature;BMP_pressure;BME280_temperature;BME280_humidity;BME280_pressure;Samples;Min_cycle;Max_cycle;Signal;HPM_P1;HPM_P2
2021/01/19 00:00:09;;;;;;;6.40;4.47;;;9.30;99.90;;;9.57;59.90;101425.72;4905217;28;99809;-62
2021/01/19 00:02:35;;;;;;;7.47;5.03;;;9.40;99.90;;;9.57;59.80;101420.47;4902367;28;97501;-60
2021/01/19 00:05:01;;;;;;;7.10;4.40;;;9.40;99.90;;;9.54;59.14;101415.22;4917352;28;97421;-60
2021/01/19 00:07:28;;;;;;;6.57;4.17;;;9.30;99.90;;;9.53;58.96;101408.22;4900957;28;100169;-58
2021/01/19 00:09:54;;;;;;;8.17;4.60;;;9.40;99.90;;;9.58;59.36;101403.75;4908531;28;97478;-60
2021/01/19 00:12:21;;;;;;;8.13;4.63;;;9.40;99.90;;;9.59;59.76;101397.59;4884138;28;96825;-60
2021/01/19 00:14:47;;;;;;;9.80;5.27;;;9.40;99.90;;;9.59;59.39;101394.94;4907125;28;99264;-60
2021/01/19 00:19:48;;;;;;;8.40;4.73;;;9.40;99.90;;;9.62;59.34;101381.72;5039837;22;98211;-60
2021/01/19 00:22:14;;;;;;;7.20;5.00;;;9.40;99.90;;;9.62;58.82;101381.72;4904900;28;96826;-61
2021/01/19 00:24:39;;;;;;;8.43;5.00;;;9.40;99.90;;;9.65;58.58;101371.09;4920910;28;99728;-59
2021/01/19 00:27:05;;;;;;;6.20;4.20;;;9.50;99.90;;;9.65;58.93;101380.78;4926100;28;99603;-59
2021/01/19 00:29:31;;;;;;;5.97;4.20;;;9.40;99.90;;;9.66;57.94;101375.47;4917921;28;99251;-60
2021/01/19 00:31:57;;;;;;;5.90;4.30;;;9.40;99.90;;;9.62;58.15;101371.19;4941773;28;97070;-57
2021/01/19 00:34:23;;;;;;;7.43;4.77;;;9.40;99.90;;;9.67;58.21;101374.56;4914834;28;105549;-58
2021/01/19 00:36:49;;;;;;;8.43;4.60;;;9.50;99.90;;;9.63;58.22;101372.91;4926443;28;98111;-59
2021/01/19 00:39:15;;;;;;;8.23;4.80;;;9.50;99.90;;;9.64;58.04;101365.88;4895220;28;99771;-61
2021/01/19 00:41:41;;;;;;;8.10;4.63;;;9.40;99.90;;;9.64;57.75;101358.84;4927480;28;97931;-61
2021/01/19 00:44:07;;;;;;;6.33;4.63;;;9.50;99.90;;;9.64;57.22;101344.78;4917184;28;96891;-60
2021/01/19 00:46:33;;;;;;;7.73;4.40;;;9.50;99.90;;;9.61;58.22;101344.88;4924013;28;99728;-60
2021/01/19 00:49:00;;;;;;;6.60;3.97;;;9.40;99.90;;;9.67;57.85;101342.97;4906658;28;102800;-59
2021/01/19 00:51:36;;;;;;;6.53;3.70;;;9.50;99.90;;;9.65;57.25;101339.50;4905390;28;97381;-60
2021/01/19 00:54:06;;;;;;;7.87;3.87;;;9.50;99.90;;;9.67;58.06;101337.69;4919284;28;97767;-61
2021/01/19 00:56:41;;;;;;;8.33;4.17;;;9.50;99.90;;;9.64;58.58;101337.75;4921289;28;98167;-57
2021/01/19 00:59:07;;;;;;;5.80;3.60;;;9.50;99.90;;;9.72;57.90;101335.84;4911678;28;97861;-58
2021/01/19 01:01:34;;;;;;;7.33;3.70;;;9.50;99.90;;;9.69;57.57;101335.91;4917487;28;98053;-59
2021/01/19 01:04:00;;;;;;;8.13;3.10;;;9.50;99.90;;;9.79;56.36;101333.94;4914338;28;97907;-57
2021/01/19 01:06:27;;;;;;;5.97;3.10;;;9.60;99.90;;;9.77;56.66;101317.28;4918017;28;100335;-58
2021/01/19 01:08:53;;;;;;;6.70;3.10;;;9.60;99.90;;;9.80;55.77;101318.09;4925766;28;99040;-58
2021/01/19 01:11:19;;;;;;;4.63;2.77;;;9.60;99.90;;;9.74;56.43;101312.97;4903380;28;97379;-57
2021/01/19 01:13:45;;;;;;;3.93;2.70;;;9.60;99.90;;;9.67;56.14;101315.75;4914354;28;99139;-58
2021/01/19 01:16:13;;;;;;;6.03;2.70;;;9.50;99.90;;;9.66;55.74;101303.47;4905595;28;100323;-56
2021/01/19 01:18:39;;;;;;;7.00;2.87;;;9.50;99.90;;;9.61;56.38;101311.50;4918573;28;101294;-55
2021/01/19 01:21:12;;;;;;;5.70;2.40;;;9.50;99.90;;;9.74;56.21;101299.78;4901892;28;97447;-59
2021/01/19 01:23:38;;;;;;;5.73;2.33;;;9.50;99.90;;;9.67;56.59;101299.94;4922565;28;98181;-59
2021/01/19 01:26:05;;;;;;;4.57;2.20;;;9.50;99.90;;;9.75;57.24;101303.28;4904219;28;111504;-58
2021/01/19 01:28:31;;;;;;;6.70;2.70;;;9.60;99.90;;;9.66;55.99;101301.72;4906861;28;99910;-55
2021/01/19 01:30:57;;;;;;;5.97;3.23;;;9.50;99.90;;;9.71;55.67;101291.09;4905129;28;97479;-59
2021/01/19 01:33:23;;;;;;;4.50;2.47;;;9.50;99.90;;;9.71;55.39;101296.38;4926129;28;97999;-57
2021/01/19 01:35:49;;;;;;;5.00;2.60;;;9.50;99.90;;;9.70;56.07;101287.59;4922045;28;98347;-60
2021/01/19 01:38:14;;;;;;;4.97;2.40;;;9.50;99.90;;;9.71;55.79;101293.72;4923657;28;100094;-60
2021/01/19 01:43:16;;;;;;;7.77;3.20;;;9.60;99.90;;;9.71;55.35;101284.06;5503231;22;98258;-64
2021/01/19 01:45:42;;;;;;;5.97;2.83;;;9.50;99.90;;;9.77;54.86;101270.72;4933724;28;104408;-60
2021/01/19 01:48:11;;;;;;;6.47;2.80;;;9.60;99.90;;;9.73;55.38;101274.34;4901697;28;99765;-61
2021/01/19 01:50:41;;;;;;;3.47;2.43;;;9.60;99.90;;;9.79;55.50;101265.44;4943331;28;96945;-59
2021/01/19 01:53:07;;;;;;;4.53;2.57;;;9.60;99.90;;;9.75;54.89;101271.69;4926647;28;96923;-58
2021/01/19 01:55:35;;;;;;;7.17;2.77;;;9.60;99.90;;;9.78;55.36;101264.56;4959765;28;99329;-60
2021/01/19 01:58:02;;;;;;;5.17;2.93;;;9.60;99.90;;;9.73;55.47;101274.34;4924678;28;101830;-61
2021/01/19 02:00:27;;;;;;;5.37;3.20;;;9.60;99.90;;;9.75;55.53;101276.94;4943693;28;97144;-60
2021/01/19 02:02:55;;;;;;;6.87;3.60;;;9.60;99.90;;;9.78;54.80;101275.09;4942138;28;102087;-61
2021/01/19 02:05:23;;;;;;;5.20;2.87;;;9.60;99.90;;;9.78;54.71;101272.47;4945505;28;100068;-60
2021/01/19 02:08:27;;;;;;;6.67;2.97;;;9.60;99.90;;;9.80;54.68;101265.38;4934896;28;98272;-61
2021/01/19 02:11:17;;;;;;;13.27;5.10;;;9.60;99.90;;;9.76;54.90;101263.72;4928480;28;97628;-57
2021/01/19 02:14:25;;;;;;;4.83;2.87;;;9.60;99.90;;;9.76;54.16;101269.00;4937259;28;98648;-57
2021/01/19 02:17:23;;;;;;;8.30;3.77;;;9.60;99.90;;;9.69;54.70;101264.78;4926100;28;105893;-59
2021/01/19 02:20:11;;;;;;;6.10;3.00;;;9.50;99.90;;;9.61;54.74;101263.22;4945159;28;101285;-60
2021/01/19 02:23:05;;;;;;;6.67;3.37;;;9.50;99.90;;;9.62;55.65;101242.09;4940001;28;96815;-58
2021/01/19 02:25:52;;;;;;;5.43;3.20;;;9.40;99.90;;;9.55;54.60;101240.53;4944644;28;97576;-60
2021/01/19 02:28:45;;;;;;;7.50;3.30;;;9.40;99.90;;;9.70;56.47;101237.53;4940488;28;98812;-60
2021/01/19 02:31:59;;;;;;;8.00;3.57;;;9.40;99.90;;;9.63;54.35;101232.44;4945234;28;99176;-61
2021/01/19 02:35:04;;;;;;;8.80;4.13;;;9.50;99.90;;;9.62;53.71;101218.38;4947810;28;102259;-59
2021/01/19 02:37:54;;;;;;;7.67;3.10;;;9.40;99.90;;;9.67;54.88;101221.78;4963757;28;98365;-59
2021/01/19 02:40:21;;;;;;;7.23;3.10;;;9.40;99.90;;;9.52;52.87;101211.59;4947392;28;98628;-59
2021/01/19 02:43:11;;;;;;;9.07;2.97;;;9.40;99.90;;;9.51;53.28;101199.31;4949434;28;98010;-57
2021/01/19 02:45:45;;;;;;;7.43;2.87;;;9.30;99.90;;;9.53;54.08;101202.78;4938782;28;100423;-58
2021/01/19 02:48:11;;;;;;;5.67;2.73;;;9.30;99.90;;;9.52;52.91;101196.66;4933147;28;97274;-56
2021/01/19 02:50:37;;;;;;;5.00;2.90;;;9.40;99.90;;;9.53;53.29;101179.94;4955421;28;101534;-56
2021/01/19 02:53:05;;;;;;;7.80;2.97;;;9.30;99.90;;;9.56;51.95;101176.41;4950208;28;98840;-61
2021/01/19 02:55:32;;;;;;;9.00;2.10;;;9.40;99.90;;;9.49;51.41;101185.34;4934950;28;99055;-59
2021/01/19 02:58:04;;;;;;;5.83;2.43;;;9.40;99.70;;;9.59;51.83;101168.44;4951087;28;97733;-59
2021/01/19 03:01:05;;;;;;;5.37;2.50;;;9.40;99.90;;;9.71;52.59;101164.63;4937993;28;100093;-56
2021/01/19 03:03:35;;;;;;;5.47;2.40;;;9.50;99.90;;;9.62;52.32;101157.81;4946677;28;98664;-61
2021/01/19 03:06:07;;;;;;;9.93;2.77;;;9.40;99.60;;;9.67;54.28;101148.03;4944529;28;97145;-59
2021/01/19 03:08:34;;;;;;;8.03;2.53;;;9.40;99.80;;;9.72;51.28;101143.53;4963781;28;98487;-59
2021/01/19 03:11:03;;;;;;;6.00;2.40;;;9.50;99.70;;;9.68;52.20;101133.06;4934109;28;99042;-57
2021/01/19 03:13:30;;;;;;;6.90;2.90;;;9.50;99.30;;;9.54;50.76;101131.63;4944943;28;101593;-57
2021/01/19 03:16:10;;;;;;;7.53;2.90;;;9.40;99.10;;;9.60;52.07;101130.66;4930348;28;97429;-59
2021/01/19 03:18:39;;;;;;;6.50;2.63;;;9.40;99.80;;;9.56;51.53;101123.72;4948407;28;97150;-59
2021/01/19 03:21:07;;;;;;;8.37;2.43;;;9.40;99.60;;;9.80;53.70;101115.19;4929063;28;100405;-61
2021/01/19 03:23:35;;;;;;;10.23;2.87;;;9.50;99.90;;;9.73;52.14;101108.38;4935251;28;97924;-59
2021/01/19 03:26:02;;;;;;;8.60;3.93;;;9.50;99.60;;;9.69;51.50;101114.63;4942574;28;96943;-59
2021/01/19 03:28:28;;;;;;;7.07;3.60;;;9.40;99.70;;;9.72;51.22;101097.88;4965601;28;96979;-60
2021/01/19 03:30:54;;;;;;;5.27;2.40;;;9.50;99.30;;;9.99;54.15;101088.41;4957802;28;103031;-60
2021/01/19 03:33:21;;;;;;;8.40;2.60;;;9.60;99.90;;;9.97;50.88;101082.28;4952013;28;99041;-63
2021/01/19 03:35:47;;;;;;;8.37;2.63;;;9.70;99.50;;;10.00;52.37;101076.94;4956896;28;98557;-61
2021/01/19 03:38:12;;;;;;;4.80;2.30;;;9.70;99.90;;;10.02;50.96;101075.13;4948349;28;97340;-61
2021/01/19 03:40:39;;;;;;;8.17;3.00;;;9.70;99.50;;;10.14;52.99;101059.00;4948981;28;99160;-60
2021/01/19 03:43:06;;;;;;;7.77;2.63;;;9.80;99.90;;;10.19;51.07;101062.34;4945929;28;98836;-60
2021/01/19 03:45:32;;;;;;;6.43;3.20;;;9.80;99.70;;;10.01;50.62;101053.19;4932178;28;99590;-58
2021/01/19 03:47:58;;;;;;;7.67;2.80;;;9.70;99.20;;;9.98;51.72;101052.38;4929849;28;103466;-59
2021/01/19 03:50:25;;;;;;;5.73;2.73;;;9.70;99.90;;;10.16;53.51;101043.13;4949005;28;97035;-60
2021/01/19 03:52:51;;;;;;;5.17;2.10;;;9.70;99.90;;;10.19;53.46;101036.00;4943878;28;97515;-61
2021/01/19 03:55:17;;;;;;;5.97;2.77;;;9.70;99.90;;;10.23;50.90;101032.38;4946994;28;97109;-60
2021/01/19 03:57:43;;;;;;;5.53;2.10;;;9.90;99.80;;;10.31;51.87;101025.13;4934146;28;97872;-59
2021/01/19 04:00:12;;;;;;;6.33;2.87;;;10.00;99.90;;;10.36;51.18;101023.22;4949406;28;100684;-58
2021/01/19 04:02:38;;;;;;;7.80;2.60;;;10.00;99.00;;;10.31;49.38;101014.59;4921372;28;96963;-59
2021/01/19 04:05:05;;;;;;;5.43;2.50;;;10.00;98.20;;;10.40;52.35;101003.75;4948884;28;97093;-61
2021/01/19 04:07:32;;;;;;;8.63;2.47;;;10.00;99.40;;;10.29;50.51;101005.88;4939911;28;97066;-59
2021/01/19 04:09:58;;;;;;;7.37;2.60;;;9.90;98.70;;;10.30;49.82;100997.03;4936048;28;99321;-59
2021/01/19 04:12:24;;;;;;;8.63;2.40;;;10.00;98.60;;;10.43;51.25;100987.88;4940412;28;104296;-65
2021/01/19 04:14:49;;;;;;;7.60;2.57;;;10.00;99.40;;;10.39;51.19;100985.34;4964883;28;118486;-60
2021/01/19 04:17:15;;;;;;;6.43;2.50;;;10.00;99.20;;;10.31;50.86;100971.53;4945861;28;96954;-61
2021/01/19 04:19:41;;;;;;;7.67;2.63;;;10.00;99.10;;;10.36;50.02;100970.47;4941974;28;114785;-57
2021/01/19 04:22:07;;;;;;;6.43;2.63;;;10.00;98.90;;;10.41;51.62;100963.31;4953130;28;116429;-61
2021/01/19 04:24:33;;;;;;;9.17;2.87;;;10.00;99.20;;;10.68;50.40;100950.16;4920905;28;97398;-60
2021/01/19 04:26:58;;;;;;;8.77;2.17;;;10.30;99.00;;;10.64;50.31;100938.00;4951969;28;98975;-59
2021/01/19 04:29:24;;;;;;;4.83;2.20;;;10.30;99.10;;;10.81;52.06;100940.94;4952114;28;106198;-64
2021/01/19 04:31:50;;;;;;;4.83;1.83;;;10.40;99.50;;;10.86;51.92;100932.91;4935008;28;112914;-61
2021/01/19 04:34:16;;;;;;;8.13;2.73;;;10.50;99.40;;;10.80;49.28;100927.81;4956550;28;97193;-59
2021/01/19 04:36:41;;;;;;;7.33;2.77;;;10.50;98.10;;;10.80;50.05;100920.75;4949449;28;97501;-58
2021/01/19 04:39:07;;;;;;;5.97;2.40;;;10.40;98.40;;;10.77;50.39;100918.22;4941393;28;112626;-61
2021/01/19 04:41:36;;;;;;;6.77;2.53;;;10.40;98.80;;;10.82;50.51;100916.28;4929653;28;98526;-61
2021/01/19 04:44:03;;;;;;;8.40;2.53;;;10.40;98.50;;;10.64;49.80;100916.88;4942632;28;97224;-58
2021/01/19 04:46:29;;;;;;;4.73;2.40;;;10.20;98.70;;;10.74;52.35;100897.22;4948435;28;97093;-58
2021/01/19 04:48:55;;;;;;;4.33;2.30;;;10.20;99.90;;;10.72;50.46;100907.81;4941401;28;118610;-58
2021/01/19 04:51:23;;;;;;;11.27;2.40;;;10.30;99.30;;;10.61;50.40;100901.16;4970944;28;105543;-57
2021/01/19 04:54:05;;;;;;;8.30;2.53;;;10.30;99.00;;;10.61;50.82;100880.91;4944325;28;97220;-62
2021/01/19 04:56:31;;;;;;;9.20;3.20;;;10.30;98.90;;;10.58;50.25;100888.06;4949005;28;97468;-60
2021/01/19 04:58:58;;;;;;;6.73;2.60;;;10.20;98.90;;;10.42;51.07;100885.94;4949635;28;99371;-60
2021/01/19 05:01:36;;;;;;;6.73;2.07;;;10.10;99.40;;;10.65;51.95;100864.06;4934628;28;99278;-58
2021/01/19 05:04:43;;;;;;;6.73;3.13;;;10.30;99.50;;;10.68;51.22;100860.47;4960313;28;98078;-58
2021/01/19 05:07:33;;;;;;;5.23;1.90;;;10.30;99.90;;;10.57;51.76;100857.34;4962400;28;97916;-57
2021/01/19 05:11:08;;;;;;;4.73;2.60;;;10.20;99.90;;;10.49;51.73;100844.38;4921060;28;103630;-57
2021/01/19 05:14:02;;;;;;;5.70;2.07;;;10.20;99.90;;;10.62;52.55;100839.56;4956652;28;101300;-59
2021/01/19 05:16:36;;;;;;;6.33;2.17;;;10.20;99.90;;;10.58;52.75;100837.97;4942139;28;97085;-57
2021/01/19 05:19:05;;;;;;;6.03;2.27;;;10.20;99.90;;;10.54;52.83;100831.03;4946158;28;98686;-59
2021/01/19 05:21:37;;;;;;;4.97;2.20;;;10.10;99.90;;;10.54;52.33;100820.47;4942114;28;99720;-62
2021/01/19 05:24:03;;;;;;;6.80;2.70;;;10.10;99.90;;;10.50;52.19;100813.59;4948570;28;104420;-57
2021/01/19 05:26:34;;;;;;;6.00;2.67;;;10.10;99.90;;;10.36;53.33;100804.34;4921846;28;97450;-58
2021/01/19 05:29:03;;;;;;;8.37;2.67;;;9.90;99.90;;;10.27;53.67;100806.41;4928364;28;99832;-58
2021/01/19 05:31:30;;;;;;;6.33;2.50;;;9.80;99.90;;;10.28;52.79;100790.56;4928150;28;97733;-55
2021/01/19 05:34:03;;;;;;;4.60;2.40;;;9.90;99.90;;;10.55;53.61;100785.28;4943868;28;101723;-57
2021/01/19 05:36:47;;;;;;;7.33;2.80;;;10.10;99.90;;;10.38;53.46;100778.78;4959363;28;97620;-58
2021/01/19 05:39:16;;;;;;;4.93;1.80;;;10.00;99.90;;;10.57;53.90;100771.16;4947779;28;98313;-56
2021/01/19 05:41:48;;;;;;;8.43;3.40;;;10.10;99.90;;;10.40;53.35;100771.69;4919906;28;99091;-59
2021/01/19 05:44:32;;;;;;;7.33;3.00;;;10.10;99.90;;;10.57;53.41;100757.09;4962201;28;96931;-60
2021/01/19 05:47:04;;;;;;;8.90;2.80;;;10.10;99.90;;;10.87;52.19;100761.31;4924255;28;98751;-59
2021/01/19 05:49:41;;;;;;;5.00;1.80;;;10.50;99.90;;;11.10;52.15;100751.69;4933728;28;97168;-57
2021/01/19 05:52:09;;;;;;;8.67;3.50;;;10.80;99.90;;;10.90;52.47;100755.94;4953346;28;102128;-58
2021/01/19 05:54:39;;;;;;;9.30;3.07;;;10.60;99.90;;;10.77;53.14;100754.63;4961994;28;97088;-59
2021/01/19 05:57:22;;;;;;;8.70;2.90;;;10.40;99.90;;;10.75;53.95;100751.19;4942201;28;96916;-60
2021/01/19 05:59:56;;;;;;;8.10;3.23;;;10.20;99.90;;;10.65;53.97;100750.63;4930375;28;97163;-60
2021/01/19 06:02:34;;;;;;;7.97;3.10;;;10.00;99.90;;;10.51;54.91;100746.75;4923800;28;97915;-60
2021/01/19 06:05:10;;;;;;;7.20;2.87;;;10.00;99.90;;;10.41;54.86;100741.78;4947282;28;103853;-60
2021/01/19 06:07:38;;;;;;;8.10;3.17;;;9.90;99.90;;;10.46;54.87;100732.84;4938535;28;96932;-60
2021/01/19 06:10:16;;;;;;;5.20;2.83;;;10.00;99.90;;;10.73;54.42;100731.91;4964450;28;96779;-59
2021/01/19 06:12:42;;;;;;;8.03;2.23;;;10.20;99.90;;;10.79;54.04;100733.47;4922202;28;98198;-61
2021/01/19 06:15:10;;;;;;;6.80;3.13;;;10.40;99.90;;;10.75;54.15;100730.06;4948865;28;103763;-59
2021/01/19 06:17:36;;;;;;;7.43;3.17;;;10.30;99.90;;;10.96;54.00;100724.03;4936308;28;96882;-59
2021/01/19 06:20:06;;;;;;;6.83;2.80;;;10.60;99.90;;;10.92;54.16;100722.41;4937443;28;97100;-60
2021/01/19 06:22:32;;;;;;;6.60;3.03;;;10.50;99.90;;;10.72;55.02;100717.00;4925530;28;98593;-60
2021/01/19 06:25:01;;;;;;;5.00;2.20;;;10.30;99.90;;;10.75;54.66;100708.13;4930499;28;103621;-57
2021/01/19 06:27:32;;;;;;;9.10;3.57;;;10.20;99.90;;;10.65;55.68;100697.88;4934156;28;97548;-58
2021/01/19 06:30:00;;;;;;;4.83;2.37;;;10.10;99.90;;;10.63;55.76;100688.28;4918826;28;99472;-61
2021/01/19 06:32:32;;;;;;;9.63;3.70;;;10.10;99.90;;;10.57;56.71;100685.88;4950296;28;99956;-62
2021/01/19 06:35:19;;;;;;;8.70;3.83;;;10.00;99.90;;;10.67;55.82;100679.34;4922944;28;97113;-62
2021/01/19 06:37:48;;;;;;;7.10;2.70;;;10.00;99.90;;;10.51;55.48;100672.91;4928912;28;97760;-62
2021/01/19 06:40:22;;;;;;;3.67;2.00;;;9.90;99.90;;;10.73;56.37;100668.59;4928242;28;104251;-61
2021/01/19 06:43:02;;;;;;;3.87;1.90;;;10.20;99.90;;;10.75;56.19;100666.75;4928564;28;98717;-56
2021/01/19 06:45:29;;;;;;;3.83;1.93;;;10.40;99.90;;;10.65;55.70;100655.66;4947727;28;100761;-59
2021/01/19 06:47:57;;;;;;;4.00;2.20;;;10.20;99.90;;;10.60;55.83;100652.34;4930762;28;98058;-60
2021/01/19 06:50:26;;;;;;;6.17;2.60;;;10.20;99.90;;;10.54;55.96;100652.53;4924058;28;97234;-56
2021/01/19 06:53:20;;;;;;;6.33;2.67;;;10.20;99.90;;;10.50;55.97;100644.81;4945385;28;97267;-59
2021/01/19 06:56:15;;;;;;;5.33;1.80;;;10.10;99.90;;;10.23;57.82;100641.34;4941325;28;100191;-62
2021/01/19 06:58:52;;;;;;;5.07;2.17;;;9.90;99.90;;;10.38;56.69;100636.41;4960368;28;97547;-60
2021/01/19 07:01:22;;;;;;;7.10;1.93;;;9.90;99.90;;;10.21;57.64;100628.22;4949933;28;97056;-56
2021/01/19 07:04:02;;;;;;;3.60;1.50;;;9.90;99.90;;;10.17;57.87;100621.31;4943876;28;98900;-60
2021/01/19 07:07:18;;;;;;;3.33;1.47;;;9.90;99.90;;;9.91;57.93;100613.44;4944057;28;96791;-59
2021/01/19 07:10:07;;;;;;;2.57;1.50;;;9.60;99.90;;;9.82;58.39;100610.16;4887786;28;97051;-60
2021/01/19 07:12:54;;;;;;;2.87;1.30;;;9.60;99.90;;;9.88;57.87;100603.00;4944380;28;97443;-61
2021/01/19 07:15:53;;;;;;;5.10;1.50;;;9.60;99.90;;;10.11;57.15;100589.88;4951885;28;104368;-61
2021/01/19 07:19:25;;;;;;;3.37;1.30;;;9.70;99.90;;;10.09;56.82;100582.03;4937903;28;101186;-60
2021/01/19 07:22:09;;;;;;;3.77;1.43;;;9.80;99.90;;;9.94;57.41;100582.56;4821944;28;99170;-58
2021/01/19 07:24:41;;;;;;;4.47;1.43;;;9.70;99.90;;;10.00;57.31;100576.22;4838396;28;96996;-57
2021/01/19 07:27:10;;;;;;;4.67;1.40;;;9.70;99.90;;;9.90;58.30;100569.53;4889883;28;103481;-61
2021/01/19 07:29:37;;;;;;;4.20;1.50;;;9.70;99.90;;;9.84;58.47;100571.50;4946086;28;99185;-59
2021/01/19 07:32:09;;;;;;;2.30;1.43;;;9.70;99.90;;;9.78;58.95;100566.41;4943877;28;100253;-60
2021/01/19 07:34:38;;;;;;;3.90;1.30;;;9.60;99.90;;;10.00;57.51;100563.06;4952287;28;97437;-60
2021/01/19 07:37:05;;;;;;;3.10;1.13;;;9.70;99.90;;;9.99;58.14;100564.84;4925160;28;103827;-59
2021/01/19 07:39:33;;;;;;;4.53;1.40;;;9.80;99.90;;;10.02;58.04;100559.44;4933184;28;99872;-58
2021/01/19 07:42:19;;;;;;;4.03;1.30;;;9.80;99.90;;;9.93;58.13;100553.63;4929197;28;98468;-60
2021/01/19 07:44:56;;;;;;;3.07;1.37;;;9.60;99.90;;;9.81;59.49;100550.50;4946580;28;97487;-59
2021/01/19 07:47:41;;;;;;;2.67;1.17;;;9.60;99.90;;;9.99;58.38;100537.63;4921984;28;100270;-60
2021/01/19 07:50:13;;;;;;;3.93;1.80;;;9.70;99.90;;;9.89;58.72;100538.84;4944310;28;101930;-60
2021/01/19 07:52:48;;;;;;;3.37;1.47;;;9.70;99.90;;;10.10;57.84;100527.53;4922245;28;98307;-60
2021/01/19 07:55:21;;;;;;;2.30;1.07;;;9.80;99.90;;;9.93;58.87;100522.00;4947621;28;97686;-61
2021/01/19 07:57:53;;;;;;;2.93;1.30;;;9.70;99.90;;;9.86;58.35;100515.25;4950778;28;100116;-61
2021/01/19 08:00:24;;;;;;;2.80;1.43;;;9.70;99.90;;;9.89;58.19;100501.97;4949193;28;99270;-59
2021/01/19 08:03:04;;;;;;;5.23;1.63;;;9.60;99.90;;;9.93;58.86;100495.66;4934020;28;98399;-62
2021/01/19 08:05:30;;;;;;;5.43;1.80;;;9.70;99.90;;;9.79;59.29;100499.63;4952718;28;97391;-57
2021/01/19 08:07:57;;;;;;;3.67;1.27;;;9.60;99.90;;;10.13;58.19;100487.91;4948620;28;98936;-60
2021/01/19 08:10:28;;;;;;;3.20;1.37;;;9.80;99.90;;;9.94;58.83;100479.78;4951887;28;98723;-60
2021/01/19 08:12:59;;;;;;;1.77;0.80;;;9.80;99.90;;;10.09;58.48;100491.56;4921898;28;98120;-60
2021/01/19 08:15:33;;;;;;;2.87;1.40;;;9.90;99.90;;;9.94;59.13;100473.66;4968203;28;97188;-61
2021/01/19 08:18:04;;;;;;;2.70;1.60;;;9.70;99.90;;;9.99;59.38;100480.50;4923564;28;100119;-61
2021/01/19 08:20:35;;;;;;;3.87;1.37;;;9.80;99.90;;;9.87;59.68;100480.94;4934125;28;98386;-59
2021/01/19 08:23:13;;;;;;;2.37;1.43;;;9.70;99.90;;;9.94;59.07;100465.75;4917600;28;97711;-60
2021/01/19 08:25:40;;;;;;;3.67;1.30;;;9.70;99.90;;;9.82;59.48;100454.75;4948736;28;102167;-60
2021/01/19 08:28:08;;;;;;;2.33;1.57;;;9.60;99.90;;;10.01;59.18;100457.59;4924053;28;97928;-61
2021/01/19 08:30:34;;;;;;;2.90;1.23;;;9.80;99.90;;;10.16;57.92;100440.34;4936249;28;98050;-61
2021/01/19 08:33:01;;;;;;;3.97;1.67;;;9.90;99.90;;;10.03;59.12;100454.91;4916146;28;97045;-60
2021/01/19 08:35:29;;;;;;;3.83;1.83;;;9.90;99.90;;;10.01;58.28;100438.28;4966227;28;97535;-56
2021/01/19 08:38:00;;;;;;;2.63;1.43;;;9.70;99.90;;;10.07;58.79;100436.28;4923486;28;99540;-61
2021/01/19 08:40:32;;;;;;;5.63;1.60;;;9.80;99.90;;;10.07;57.86;100435.41;4962646;28;98371;-60
2021/01/19 08:42:59;;;;;;;6.90;1.73;;;9.70;99.90;;;10.12;57.97;100436.09;4939011;28;97260;-58
2021/01/19 08:45:30;;;;;;;1.80;1.10;;;9.90;99.90;;;10.18;58.24;100422.69;4931336;28;99577;-55
2021/01/19 08:48:01;;;;;;;2.57;1.67;;;9.80;99.90;;;9.97;59.70;100439.28;4924242;28;97411;-53
2021/01/19 08:50:30;;;;;;;5.33;2.33;;;9.80;99.90;;;9.87;60.62;100437.94;4942044;28;100357;-56
2021/01/19 08:52:56;;;;;;;3.63;1.93;;;9.70;99.90;;;9.72;59.49;100434.94;4929690;28;96940;-58
2021/01/19 08:55:25;;;;;;;1.97;1.13;;;9.50;99.90;;;9.99;59.36;100424.31;4941066;28;97302;-54
2021/01/19 08:57:57;;;;;;;3.17;1.77;;;9.70;99.90;;;9.89;59.81;100425.56;4930094;28;100840;-57
2021/01/19 09:00:25;;;;;;;3.23;2.00;;;9.70;99.90;;;9.94;58.73;100413.91;4936122;28;97004;-57
2021/01/19 09:02:54;;;;;;;7.80;1.83;;;9.70;99.90;;;9.97;59.31;100420.84;4938750;28;97120;-62
2021/01/19 09:05:38;;;;;;;5.03;1.50;;;9.70;99.90;;;10.08;58.65;100416.06;4941678;28;97489;-61
2021/01/19 09:08:18;;;;;;;5.43;1.50;;;9.80;99.90;;;9.95;59.32;100420.06;4938098;28;100257;-61
2021/01/19 09:10:45;;;;;;;1.77;1.07;;;9.80;99.90;;;9.90;59.53;100407.06;4936646;28;97821;-61
2021/01/19 09:13:12;;;;;;;5.07;1.60;;;9.70;99.90;;;9.84;59.11;100423.97;4940048;28;97260;-61
2021/01/19 09:15:43;;;;;;;3.70;1.50;;;9.60;99.90;;;9.87;59.44;100427.41;4940629;28;97470;-61
2021/01/19 09:18:12;;;;;;;3.47;1.50;;;9.70;99.90;;;10.01;58.62;100414.56;4957835;28;97955;-59
2021/01/19 09:20:42;;;;;;;1.60;0.90;;;9.80;99.90;;;9.82;59.14;100423.13;4938148;28;100642;-60
2021/01/19 09:23:16;;;;;;;1.97;1.47;;;9.60;99.90;;;9.82;59.90;100420.50;4943729;28;97454;-59
2021/01/19 09:25:43;;;;;;;1.70;0.90;;;9.70;99.90;;;9.70;60.10;100409.56;4942756;28;97056;-58
2021/01/19 09:28:10;;;;;;;1.20;0.97;;;9.50;99.90;;;9.59;61.28;100409.09;4941506;28;99629;-61
2021/01/19 09:30:36;;;;;;;3.23;1.10;;;9.40;99.90;;;9.45;62.07;100410.41;4938189;28;96764;-59
2021/01/19 09:33:07;;;;;;;3.33;0.83;;;9.30;99.90;;;9.35;62.21;100402.88;4923829;28;98024;-61
2021/01/19 09:35:35;;;;;;;2.60;0.93;;;9.20;99.90;;;9.30;62.67;100399.56;4919406;28;97134;-60
2021/01/19 09:38:02;;;;;;;2.53;0.80;;;9.10;99.90;;;9.19;62.65;100403.41;4956279;28;97246;-61
2021/01/19 09:40:36;;;;;;;2.10;1.10;;;9.00;99.90;;;9.16;62.95;100403.53;4928589;28;99995;-61
2021/01/19 09:43:07;;;;;;;1.60;0.60;;;9.00;99.90;;;9.09;62.67;100407.25;4939643;28;97485;-60
2021/01/19 09:45:35;;;;;;;1.30;0.80;;;8.90;99.90;;;9.05;62.98;100410.06;4961981;28;97258;-59
2021/01/19 09:48:02;;;;;;;2.23;1.00;;;8.90;99.90;;;9.01;64.01;100406.66;4929356;28;99507;-62
2021/01/19 09:50:28;;;;;;;2.47;0.80;;;8.90;99.90;;;9.02;63.65;100395.25;4951011;28;96744;-60
2021/01/19 09:52:54;;;;;;;1.50;1.10;;;8.90;99.90;;;8.98;63.66;100401.50;4944507;28;97492;-61
2021/01/19 09:55:21;;;;;;;6.23;1.00;;;8.80;99.90;;;8.95;63.71;100391.94;4962024;28;96801;-61
2021/01/19 09:58:04;;;;;;;2.73;1.10;;;8.80;99.90;;;8.96;64.66;100405.94;4938709;28;100480;-59
2021/01/19 10:00:37;;;;;;;2.80;1.00;;;8.90;99.90;;;8.91;63.96;100392.94;4921591;28;103913;-62
2021/01/19 10:03:15;;;;;;;3.33;1.10;;;8.80;99.90;;;8.91;64.54;100397.34;4929601;28;97679;-61
2021/01/19 10:05:57;;;;;;;3.10;1.10;;;8.80;99.90;;;8.81;64.69;100394.16;4945625;28;96716;-60
2021/01/19 10:08:24;;;;;;;5.77;3.57;;;8.70;99.90;;;8.76;65.77;100392.59;4918814;28;102934;-60
2021/01/19 10:10:50;;;;;;;5.03;1.80;;;8.70;99.90;;;8.70;65.78;100388.41;4943296;28;96765;-59
2021/01/19 10:13:16;;;;;;;4.37;1.73;;;8.60;99.90;;;8.65;65.89;100377.16;4934766;28;98341;-59
2021/01/19 10:15:42;;;;;;;4.33;1.90;;;8.50;99.90;;;8.63;66.15;100387.72;4948730;28;96943;-61
2021/01/19 10:18:08;;;;;;;4.93;2.00;;;8.60;99.90;;;8.63;65.56;100379.84;4932905;28;97471;-61
2021/01/19 10:20:36;;;;;;;5.00;2.10;;;8.60;99.90;;;8.65;66.22;100385.91;4931964;28;97687;-61
2021/01/19 10:23:04;;;;;;;3.57;1.63;;;8.60;99.90;;;8.65;66.18;100371.91;4917051;28;97010;-60
2021/01/19 10:25:34;;;;;;;3.77;2.43;;;8.60;99.90;;;8.64;66.61;100376.28;4948780;28;99195;-62
2021/01/19 10:28:03;;;;;;;4.70;2.10;;;8.60;99.90;;;8.63;67.19;100374.56;4920153;28;100172;-59
2021/01/19 10:30:40;;;;;;;4.40;2.20;;;8.60;99.90;;;8.69;66.64;100370.06;4946869;28;98728;-61
2021/01/19 10:33:06;;;;;;;2.43;1.50;;;8.60;99.90;;;8.77;66.58;100362.75;4928770;28;98259;-59
2021/01/19 10:35:34;;;;;;;4.57;1.80;;;8.70;99.90;;;8.85;66.89;100351.09;4949493;28;96994;-59
2021/01/19 10:38:06;;;;;;;4.40;2.00;;;8.80;99.90;;;8.93;66.70;100366.59;4911866;28;99507;-59
2021/01/19 10:40:34;;;;;;;2.43;1.63;;;8.80;99.90;;;9.02;66.13;100368.94;4943456;28;96886;-59
2021/01/19 10:43:11;;;;;;;3.30;1.80;;;8.90;99.90;;;9.13;66.10;100351.00;4939795;28;97341;-59
2021/01/19 10:45:42;;;;;;;3.43;2.70;;;9.00;99.90;;;9.34;65.61;100364.31;4943415;28;97506;-59